Ocean Dr Beach, South Carolina
Current Conditions -  °F | °C
As of 2:53 PM on Friday 28 Nov 2014 (Local Time) from KCRE Reporting Station
Clear Clear  
Wind Chill: 46°   Ceiling: Unl
Heat Index: 48°   Visibility: 10mi
Dew Point: 22°   Wind: 5mph
Humidity: 36%   Direction: NA
Pressure: 30.3"   Gusts: NA
Location:  33.8371°N, 78.6471°W
Report Text: KCRE 281953Z VRB04KT 10SM CLR 09/M06 A3030 RMK AO1 SLP260 T00891056
Loading
Personal Weather Stations






























Interactive Weather Map New forecast layout! Learn more

10-Day Weather Forecast

Advertisements
Track Severe Weather on mobile